Time;durP1;ratioP1;P1;durP2;ratioP2;P2;SDS_P1;SDS_P2;PMS_P1;PMS_P2;Temp;Humidity;BMP_temperature;BMP_pressure;BME280_temperature;BME280_humidity;BME280_pressure;Samples;Min_cycle;Max_cycle;Signal;HPM_P1;HPM_P2
2023/01/07 00:01:01;;;;;;;;;;;5.20;99.90;;;;;;5021004;28;1545;-71
2023/01/07 00:03:29;;;;;;;;;;;5.20;99.90;;;;;;5015072;28;1993;-70
2023/01/07 00:05:59;;;;;;;;;;;5.20;99.90;;;;;;5015801;28;1275;-72
2023/01/07 00:08:29;;;;;;;;;;;5.30;99.90;;;;;;5023032;28;1029;-71
2023/01/07 00:10:57;;;;;;;;;;;5.30;99.90;;;;;;5014182;28;1584;-71
2023/01/07 00:13:26;;;;;;;;;;;5.50;99.90;;;;;;5017160;28;1020;-71
2023/01/07 00:15:57;;;;;;;;;;;5.40;99.90;;;;;;5014500;28;1496;-70
2023/01/07 00:18:24;;;;;;;;;;;5.50;99.90;;;;;;5023319;28;1546;-74
2023/01/07 00:20:52;;;;;;;;;;;5.50;99.90;;;;;;5019544;28;1993;-73
2023/01/07 00:23:20;;;;;;;;;;;5.50;99.90;;;;;;5023658;28;1989;-74
2023/01/07 00:25:48;;;;;;;;;;;5.60;99.90;;;;;;5028106;28;1463;-75
2023/01/07 00:28:15;;;;;;;;;;;5.60;99.90;;;;;;5024882;28;1581;-73
2023/01/07 00:30:44;;;;;;;;;;;5.70;99.90;;;;;;5021326;28;1266;-79
2023/01/07 00:33:14;;;;;;;;;;;5.70;99.90;;;;;;5025225;28;1109;-78
2023/01/07 00:35:43;;;;;;;;;;;5.80;99.90;;;;;;5027616;28;1312;-76
2023/01/07 00:38:11;;;;;;;;;;;5.80;99.90;;;;;;5023688;28;973;-77
2023/01/07 00:40:39;;;;;;;;;;;5.90;99.90;;;;;;5024390;28;1005;-77
2023/01/07 00:43:07;;;;;;;;;;;5.90;99.90;;;;;;5025915;28;1988;-76
2023/01/07 00:45:35;;;;;;;;;;;6.00;99.90;;;;;;5023889;28;1304;-76
2023/01/07 00:48:04;;;;;;;;;;;6.00;99.90;;;;;;5023790;28;1817;-76
2023/01/07 00:50:33;;;;;;;;;;;6.10;99.90;;;;;;5025142;28;1064;-76
2023/01/07 00:53:01;;;;;;;;;;;6.10;99.90;;;;;;5013637;28;1050;-75
2023/01/07 00:55:29;;;;;;;;;;;6.10;99.90;;;;;;5019576;28;1292;-77
2023/01/07 00:57:57;;;;;;;;;;;6.10;99.90;;;;;;5023919;28;1277;-74
2023/01/07 01:00:25;;;;;;;;;;;6.10;99.90;;;;;;5022339;28;1081;-75
2023/01/07 01:02:53;;;;;;;;;;;6.20;99.90;;;;;;5021786;28;1965;-75
2023/01/07 01:05:22;;;;;;;;;;;6.20;99.90;;;;;;5025676;28;1363;-75
2023/01/07 01:07:53;;;;;;;;;;;6.30;99.90;;;;;;5013726;28;1113;-75
2023/01/07 01:10:20;;;;;;;;;;;6.40;99.90;;;;;;5022862;28;1148;-76
2023/01/07 01:12:48;;;;;;;;;;;6.40;99.90;;;;;;5026047;28;1092;-76
2023/01/07 01:15:16;;;;;;;;;;;6.40;99.90;;;;;;5029074;28;1327;-76
2023/01/07 01:17:44;;;;;;;;;;;6.40;99.90;;;;;;5029166;28;1386;-78
2023/01/07 01:20:13;;;;;;;;;;;6.50;99.90;;;;;;5025713;28;1560;-76
2023/01/07 01:22:43;;;;;;;;;;;6.50;99.90;;;;;;5028592;28;1993;-76
2023/01/07 01:25:11;;;;;;;;;;;6.50;99.90;;;;;;5030318;28;1572;-76
2023/01/07 01:27:39;;;;;;;;;;;6.60;99.90;;;;;;5027667;28;1669;-76
2023/01/07 01:30:07;;;;;;;;;;;6.50;99.90;;;;;;5023496;28;1292;-78
2023/01/07 01:32:35;;;;;;;;;;;6.60;99.90;;;;;;5025785;28;954;-77
2023/01/07 01:35:03;;;;;;;;;;;6.60;99.90;;;;;;5026210;28;1315;-77
2023/01/07 01:37:31;;;;;;;;;;;6.60;99.90;;;;;;5023823;28;1009;-75
2023/01/07 01:40:02;;;;;;;;;;;6.60;99.90;;;;;;5025393;28;1009;-77
2023/01/07 01:42:31;;;;;;;;;;;6.60;99.90;;;;;;5017523;28;1404;-79
2023/01/07 01:45:00;;;;;;;;;;;6.40;99.90;;;;;;5023828;28;1914;-77
2023/01/07 01:47:32;;;;;;;;;;;6.50;99.90;;;;;;5028588;28;1037;-79
2023/01/07 01:50:03;;;;;;;;;;;6.60;99.90;;;;;;5025779;28;1093;-77
2023/01/07 01:52:37;;;;;;;;;;;6.50;99.90;;;;;;5026903;28;1082;-78
2023/01/07 01:55:08;;;;;;;;;;;6.40;99.90;;;;;;5028488;28;1698;-77
2023/01/07 01:57:38;;;;;;;;;;;6.50;99.90;;;;;;5030576;28;1060;-77
2023/01/07 02:00:06;;;;;;;;;;;6.60;99.90;;;;;;5023627;28;1220;-77
2023/01/07 02:02:37;;;;;;;;;;;6.70;99.90;;;;;;5017110;28;1508;-77
2023/01/07 02:05:06;;;;;;;;;;;6.80;99.90;;;;;;5024152;28;1910;-77
2023/01/07 02:07:34;;;;;;;;;;;6.80;99.90;;;;;;5031262;28;1132;-79
2023/01/07 02:10:09;;;;;;;;;;;6.80;99.90;;;;;;5036951;28;1348;-78
2023/01/07 02:12:42;;;;;;;;;;;6.70;99.90;;;;;;5025883;28;1032;-77
2023/01/07 02:15:12;;;;;;;;;;;6.80;99.90;;;;;;5017159;28;1577;-77
2023/01/07 02:17:46;;;;;;;;;;;6.80;99.90;;;;;;5017727;28;1720;-78
2023/01/07 02:20:25;;;;;;;;;;;6.90;99.90;;;;;;5029634;28;989;-76
2023/01/07 02:23:09;;;;;;;;;;;6.90;99.90;;;;;;5026200;28;1747;-75
2023/01/07 02:25:58;;;;;;;;;;;6.90;99.90;;;;;;5016197;28;1976;-76
2023/01/07 02:28:37;;;;;;;;;;;7.00;99.90;;;;;;5024036;28;1532;-76
2023/01/07 02:31:14;;;;;;;;;;;7.10;99.90;;;;;;5026478;28;973;-76
2023/01/07 02:33:48;;;;;;;;;;;7.00;99.90;;;;;;5017233;28;957;-76
2023/01/07 02:36:23;;;;;;;;;;;7.10;99.90;;;;;;5016697;28;962;-76
2023/01/07 02:38:58;;;;;;;;;;;7.10;99.90;;;;;;5028155;28;1540;-76
2023/01/07 02:41:33;;;;;;;;;;;7.20;99.90;;;;;;5030063;28;800;-76
2023/01/07 02:44:03;;;;;;;;;;;7.20;99.90;;;;;;5027364;28;1910;-76
2023/01/07 02:46:42;;;;;;;;;;;7.20;99.90;;;;;;5020325;28;1038;-76
2023/01/07 02:49:14;;;;;;;;;;;7.30;99.90;;;;;;5032127;28;1631;-76
2023/01/07 02:51:52;;;;;;;;;;;7.30;99.90;;;;;;5025237;28;1026;-76
2023/01/07 02:54:21;;;;;;;;;;;7.20;99.90;;;;;;5032590;28;1455;-76
2023/01/07 02:56:59;;;;;;;;;;;7.30;99.90;;;;;;5025244;28;1014;-76
2023/01/07 02:59:35;;;;;;;;;;;7.20;99.90;;;;;;5030298;28;1009;-77
2023/01/07 03:02:21;;;;;;;;;;;7.20;99.90;;;;;;5029901;28;1524;-77
2023/01/07 03:05:00;;;;;;;;;;;7.10;99.90;;;;;;5025954;28;1978;-77
2023/01/07 03:07:33;;;;;;;;;;;7.10;99.90;;;;;;5032920;28;1173;-77
2023/01/07 03:10:02;;;;;;;;;;;7.20;99.90;;;;;;5022177;28;1293;-77
2023/01/07 03:12:31;;;;;;;;;;;7.10;99.90;;;;;;5031092;28;1104;-77
2023/01/07 03:15:02;;;;;;;;;;;7.30;99.90;;;;;;5027529;28;1287;-76
2023/01/07 03:17:31;;;;;;;;;;;7.40;99.90;;;;;;5018015;28;996;-77
2023/01/07 03:20:01;;;;;;;;;;;7.40;99.90;;;;;;5023975;28;1105;-77
2023/01/07 03:22:31;;;;;;;;;;;7.40;99.90;;;;;;5031873;28;1038;-77
2023/01/07 03:24:59;;;;;;;;;;;7.40;99.90;;;;;;5028396;28;1997;-77
2023/01/07 03:27:32;;;;;;;;;;;7.50;99.90;;;;;;5024568;28;1093;-78
2023/01/07 03:30:02;;;;;;;;;;;7.50;99.90;;;;;;5026259;28;1058;-77
2023/01/07 03:32:32;;;;;;;;;;;7.40;99.90;;;;;;5027048;28;1023;-78
2023/01/07 03:35:01;;;;;;;;;;;7.40;99.90;;;;;;5015999;28;1263;-76
2023/01/07 03:37:30;;;;;;;;;;;7.50;99.90;;;;;;5017306;28;1064;-77
2023/01/07 03:39:58;;;;;;;;;;;7.50;99.90;;;;;;5029569;28;1489;-77
2023/01/07 03:42:39;;;;;;;;;;;7.60;99.90;;;;;;5016472;28;1005;-77
2023/01/07 03:45:08;;;;;;;;;;;7.60;99.90;;;;;;5015509;28;1979;-77
2023/01/07 03:47:36;;;;;;;;;;;7.70;99.90;;;;;;5022841;28;1093;-77
2023/01/07 03:50:06;;;;;;;;;;;7.70;99.90;;;;;;5022787;28;1586;-77
2023/01/07 03:52:33;;;;;;;;;;;7.70;99.90;;;;;;5025775;28;1102;-77
2023/01/07 03:55:03;;;;;;;;;;;7.80;99.90;;;;;;5023948;28;1291;-77
2023/01/07 03:57:31;;;;;;;;;;;7.90;99.90;;;;;;5027393;28;1016;-77
2023/01/07 03:59:59;;;;;;;;;;;7.80;99.90;;;;;;5026887;28;1128;-77
2023/01/07 04:02:26;;;;;;;;;;;7.80;99.90;;;;;;5023391;28;1036;-76
2023/01/07 04:04:54;;;;;;;;;;;7.90;99.90;;;;;;5025370;28;1902;-77
2023/01/07 04:07:23;;;;;;;;;;;7.90;99.90;;;;;;5028344;28;985;-78
2023/01/07 04:09:51;;;;;;;;;;;7.90;99.90;;;;;;5017674;28;1301;-76
2023/01/07 04:12:18;;;;;;;;;;;8.00;99.90;;;;;;5018210;28;1701;-78
2023/01/07 04:14:46;;;;;;;;;;;8.00;99.90;;;;;;5025280;28;1354;-77
2023/01/07 04:17:13;;;;;;;;;;;8.00;99.90;;;;;;5043465;28;1137;-76
2023/01/07 04:19:41;;;;;;;;;;;8.00;99.90;;;;;;5037020;28;1113;-77
2023/01/07 04:22:10;;;;;;;;;;;8.00;99.90;;;;;;5028160;28;1153;-76
2023/01/07 04:24:39;;;;;;;;;;;8.00;99.90;;;;;;5022794;28;1918;-76
2023/01/07 04:27:07;;;;;;;;;;;8.00;99.90;;;;;;5022348;28;1966;-74
2023/01/07 04:29:34;;;;;;;;;;;8.10;99.90;;;;;;5021604;28;2021;-73
2023/01/07 04:32:02;;;;;;;;;;;8.10;99.90;;;;;;5020935;28;926;-73
2023/01/07 04:34:30;;;;;;;;;;;8.10;99.90;;;;;;5023106;28;1262;-74
2023/01/07 04:36:57;;;;;;;;;;;8.10;99.90;;;;;;5026842;28;1613;-73
2023/01/07 04:39:27;;;;;;;;;;;8.10;99.90;;;;;;5020533;28;1958;-73
2023/01/07 04:41:56;;;;;;;;;;;8.10;99.90;;;;;;5021194;28;1030;-72
2023/01/07 04:44:23;;;;;;;;;;;8.20;99.90;;;;;;5022769;28;1305;-73
2023/01/07 04:46:51;;;;;;;;;;;8.20;99.90;;;;;;5014494;28;1906;-74
2023/01/07 04:49:19;;;;;;;;;;;8.20;99.90;;;;;;5014235;28;1296;-72
2023/01/07 04:51:46;;;;;;;;;;;8.10;99.90;;;;;;5021853;28;1018;-73
2023/01/07 04:54:20;;;;;;;;;;;8.20;99.90;;;;;;5025115;28;1893;-74
2023/01/07 04:56:48;;;;;;;;;;;8.20;99.90;;;;;;5028501;28;1030;-72
2023/01/07 04:59:18;;;;;;;;;;;8.20;99.90;;;;;;5021953;28;1044;-75
2023/01/07 05:01:46;;;;;;;;;;;8.30;99.90;;;;;;5024261;28;1030;-74
2023/01/07 05:04:13;;;;;;;;;;;8.30;99.90;;;;;;5026125;28;1413;-74
2023/01/07 05:06:41;;;;;;;;;;;8.30;99.90;;;;;;5013862;28;1886;-73
2023/01/07 05:09:10;;;;;;;;;;;8.40;99.90;;;;;;5014195;28;1043;-74
2023/01/07 05:11:38;;;;;;;;;;;8.30;99.90;;;;;;5025622;28;1243;-74
2023/01/07 05:14:05;;;;;;;;;;;8.40;99.90;;;;;;5024051;28;1379;-73
2023/01/07 05:16:34;;;;;;;;;;;8.40;99.90;;;;;;5023864;28;1057;-73
2023/01/07 05:19:02;;;;;;;;;;;8.50;99.90;;;;;;5029949;28;1532;-75
2023/01/07 05:21:29;;;;;;;;;;;8.50;99.90;;;;;;5026918;28;1049;-74
2023/01/07 05:23:57;;;;;;;;;;;8.60;99.90;;;;;;5021186;28;1256;-74
2023/01/07 05:26:25;;;;;;;;;;;8.60;99.90;;;;;;5024447;28;1914;-75
2023/01/07 05:28:52;;;;;;;;;;;8.70;99.90;;;;;;5019268;28;1500;-74
2023/01/07 05:31:20;;;;;;;;;;;8.60;99.90;;;;;;5028593;28;1062;-74
2023/01/07 05:33:49;;;;;;;;;;;8.70;99.90;;;;;;5013777;28;1093;-74
2023/01/07 05:36:16;;;;;;;;;;;8.70;99.90;;;;;;5017442;28;1129;-74
2023/01/07 05:38:44;;;;;;;;;;;8.70;99.90;;;;;;5027337;28;1328;-74
2023/01/07 05:41:12;;;;;;;;;;;8.80;99.90;;;;;;5025639;28;998;-74
2023/01/07 05:43:39;;;;;;;;;;;8.70;99.90;;;;;;5030109;28;1500;-74
2023/01/07 05:46:08;;;;;;;;;;;8.80;99.90;;;;;;5028814;28;1907;-74
2023/01/07 05:48:36;;;;;;;;;;;8.80;99.90;;;;;;5031056;28;1492;-74
2023/01/07 05:51:05;;;;;;;;;;;8.80;99.90;;;;;;5025274;28;1023;-74
2023/01/07 05:53:33;;;;;;;;;;;8.90;99.90;;;;;;5017591;28;1228;-73
2023/01/07 05:56:00;;;;;;;;;;;8.90;99.90;;;;;;5017338;28;1358;-75
2023/01/07 05:58:28;;;;;;;;;;;8.90;99.90;;;;;;5017889;28;1242;-75
2023/01/07 06:00:56;;;;;;;;;;;8.90;99.90;;;;;;5023443;28;1152;-74
2023/01/07 06:03:23;;;;;;;;;;;9.00;99.90;;;;;;5030222;28;1020;-75
2023/01/07 06:05:51;;;;;;;;;;;8.90;99.90;;;;;;5016735;28;1989;-74
2023/01/07 06:08:21;;;;;;;;;;;9.00;99.90;;;;;;5017419;28;981;-74
2023/01/07 06:10:49;;;;;;;;;;;9.00;99.90;;;;;;5029793;28;1021;-74
2023/01/07 06:13:18;;;;;;;;;;;9.00;99.90;;;;;;5031149;28;998;-73
2023/01/07 06:15:46;;;;;;;;;;;9.00;99.90;;;;;;5029213;28;1521;-75
2023/01/07 06:18:14;;;;;;;;;;;9.10;99.90;;;;;;5030731;28;899;-74
2023/01/07 06:20:41;;;;;;;;;;;9.20;99.90;;;;;;5029843;28;1680;-74
2023/01/07 06:23:09;;;;;;;;;;;9.10;99.90;;;;;;5023966;28;1093;-73
2023/01/07 06:25:38;;;;;;;;;;;9.20;99.90;;;;;;5026013;28;1996;-74
2023/01/07 06:28:05;;;;;;;;;;;9.20;99.90;;;;;;5031669;28;965;-74
2023/01/07 06:30:34;;;;;;;;;;;9.30;99.90;;;;;;5037105;28;1065;-74
2023/01/07 06:33:04;;;;;;;;;;;9.20;99.90;;;;;;5030464;28;1044;-73
2023/01/07 06:35:33;;;;;;;;;;;9.30;99.90;;;;;;5026657;28;1638;-74
2023/01/07 06:38:01;;;;;;;;;;;9.20;99.90;;;;;;5027161;28;1029;-73
2023/01/07 06:40:29;;;;;;;;;;;9.20;99.90;;;;;;5025939;28;1049;-73
2023/01/07 06:42:58;;;;;;;;;;;9.30;99.90;;;;;;5029698;28;1526;-75
2023/01/07 06:45:25;;;;;;;;;;;9.40;99.90;;;;;;5027073;28;1296;-74
2023/01/07 06:47:56;;;;;;;;;;;9.40;99.90;;;;;;5031196;28;1914;-74
2023/01/07 06:50:24;;;;;;;;;;;9.40;99.90;;;;;;5031146;28;1034;-73
2023/01/07 06:52:51;;;;;;;;;;;9.60;99.90;;;;;;5016418;28;1007;-72
2023/01/07 06:55:19;;;;;;;;;;;9.60;99.90;;;;;;5017855;28;1359;-72
2023/01/07 06:57:47;;;;;;;;;;;9.70;99.90;;;;;;5026390;28;1985;-77
2023/01/07 07:00:16;;;;;;;;;;;9.70;99.90;;;;;;5032687;28;2024;-76
2023/01/07 07:02:44;;;;;;;;;;;9.80;99.90;;;;;;5016844;28;1536;-75
2023/01/07 07:05:12;;;;;;;;;;;9.80;99.90;;;;;;5028179;28;1335;-78
2023/01/07 07:07:48;;;;;;;;;;;9.90;99.90;;;;;;5025567;28;2163;-82
2023/01/07 07:10:16;;;;;;;;;;;9.90;99.90;;;;;;5031304;28;1009;-82
2023/01/07 07:12:46;;;;;;;;;;;9.80;99.90;;;;;;5025835;28;1802;-81
2023/01/07 07:15:14;;;;;;;;;;;9.80;99.90;;;;;;5025308;28;1970;-79
2023/01/07 07:17:43;;;;;;;;;;;10.00;99.90;;;;;;5034370;28;2009;-79
2023/01/07 07:20:11;;;;;;;;;;;10.20;99.90;;;;;;5018821;28;1053;-80
2023/01/07 07:22:47;;;;;;;;;;;10.40;99.90;;;;;;5021448;28;1105;-81
2023/01/07 07:25:15;;;;;;;;;;;10.50;99.90;;;;;;5030789;28;1662;-81
2023/01/07 07:27:44;;;;;;;;;;;10.30;99.90;;;;;;5025634;28;1962;-74
2023/01/07 07:30:12;;;;;;;;;;;10.60;99.90;;;;;;5027220;28;1832;-79
2023/01/07 07:32:40;;;;;;;;;;;10.40;99.90;;;;;;5026278;28;1967;-80
2023/01/07 07:35:10;;;;;;;;;;;10.50;99.90;;;;;;5042073;28;1957;-76
2023/01/07 07:37:37;;;;;;;;;;;10.40;99.90;;;;;;5036141;28;1116;-80
2023/01/07 07:40:06;;;;;;;;;;;10.40;99.90;;;;;;5030147;28;1735;-80
2023/01/07 07:42:33;;;;;;;;;;;10.50;99.90;;;;;;5018070;28;1021;-80
2023/01/07 07:45:21;;;;;;;;;;;10.60;99.90;;;;;;5026036;28;1553;-80
2023/01/07 07:47:49;;;;;;;;;;;10.50;99.90;;;;;;5031539;28;1938;-81
2023/01/07 07:50:18;;;;;;;;;;;10.50;99.90;;;;;;5034765;28;2041;-77
2023/01/07 07:52:46;;;;;;;;;;;10.50;99.90;;;;;;5024536;28;1086;-75
2023/01/07 07:55:13;;;;;;;;;;;10.50;99.90;;;;;;5023969;28;1264;-77
2023/01/07 07:57:53;;;;;;;;;;;10.50;99.90;;;;;;5026502;28;1089;-76
2023/01/07 08:00:20;;;;;;;;;;;10.50;99.90;;;;;;5027222;28;1079;-76
2023/01/07 08:02:48;;;;;;;;;;;10.40;99.90;;;;;;5023379;28;1539;-76
2023/01/07 08:05:16;;;;;;;;;;;10.40;99.90;;;;;;5023108;28;1966;-76
2023/01/07 08:07:45;;;;;;;;;;;10.40;99.90;;;;;;5028821;28;1993;-77
2023/01/07 08:10:12;;;;;;;;;;;10.40;99.90;;;;;;5027308;28;1239;-77
2023/01/07 08:12:40;;;;;;;;;;;10.40;99.90;;;;;;5025756;28;1093;-76
2023/01/07 08:15:08;;;;;;;;;;;10.40;99.90;;;;;;5026964;28;1346;-76
2023/01/07 08:17:36;;;;;;;;;;;10.40;99.90;;;;;;5015282;28;1495;-76
2023/01/07 08:20:04;;;;;;;;;;;10.40;99.90;;;;;;5027703;28;1100;-77
2023/01/07 08:22:32;;;;;;;;;;;10.50;99.90;;;;;;5024075;28;1552;-77
2023/01/07 08:25:01;;;;;;;;;;;10.50;99.90;;;;;;5024301;28;1327;-78
2023/01/07 08:27:29;;;;;;;;;;;10.50;99.90;;;;;;5024401;28;1969;-76
2023/01/07 08:29:57;;;;;;;;;;;10.50;99.90;;;;;;5026791;28;1184;-76
2023/01/07 08:32:24;;;;;;;;;;;10.50;99.90;;;;;;5023200;28;1137;-78
2023/01/07 08:34:52;;;;;;;;;;;10.50;99.90;;;;;;5024582;28;1284;-76
2023/01/07 08:37:20;;;;;;;;;;;10.50;99.90;;;;;;5027368;28;1838;-77
2023/01/07 08:39:47;;;;;;;;;;;10.50;99.90;;;;;;5038188;28;1512;-76
2023/01/07 08:42:16;;;;;;;;;;;10.50;99.90;;;;;;5041522;28;1270;-75
2023/01/07 08:44:45;;;;;;;;;;;10.60;99.90;;;;;;5031914;28;1295;-76
2023/01/07 08:47:13;;;;;;;;;;;10.50;99.90;;;;;;5028736;28;1910;-77
2023/01/07 08:49:40;;;;;;;;;;;10.50;99.90;;;;;;5028498;28;1508;-75
2023/01/07 08:52:08;;;;;;;;;;;10.50;99.90;;;;;;5026661;28;1085;-75
2023/01/07 08:54:35;;;;;;;;;;;10.60;99.90;;;;;;5030215;28;1375;-77
2023/01/07 08:57:03;;;;;;;;;;;10.60;99.90;;;;;;5029290;28;1484;-76
2023/01/07 08:59:32;;;;;;;;;;;10.60;99.90;;;;;;5028949;28;1326;-76
2023/01/07 09:02:00;;;;;;;;;;;10.60;99.90;;;;;;5025858;28;1077;-76
2023/01/07 09:04:27;;;;;;;;;;;10.60;99.90;;;;;;5023813;28;1283;-77
2023/01/07 09:06:56;;;;;;;;;;;10.60;99.90;;;;;;5028632;28;1906;-78
2023/01/07 09:09:24;;;;;;;;;;;10.60;99.90;;;;;;5022235;28;986;-77
2023/01/07 09:11:52;;;;;;;;;;;10.70;99.90;;;;;;5025000;28;1053;-76
2023/01/07 09:17:04;;;;;;;;;;;10.70;99.90;;;;;;5041153;28;1300;-91
2023/01/07 09:22:57;;;;;;;;;;;10.70;99.90;;;;;;5028098;28;1485;-88
2023/01/07 09:25:26;;;;;;;;;;;10.70;99.90;;;;;;5026304;28;1510;-89
2023/01/07 09:27:57;;;;;;;;;;;10.80;99.90;;;;;;5030024;28;1993;-89
2023/01/07 09:30:28;;;;;;;;;;;10.90;99.90;;;;;;5038763;28;1686;-92
2023/01/07 09:32:57;;;;;;;;;;;10.80;99.90;;;;;;5045526;28;1604;-90
2023/01/07 09:35:25;;;;;;;;;;;10.80;99.90;;;;;;5045984;28;1678;-90
2023/01/07 09:37:57;;;;;;;;;;;10.80;99.90;;;;;;5043889;28;1741;-89
2023/01/07 09:40:26;;;;;;;;;;;10.80;99.90;;;;;;5037573;28;1486;-88
2023/01/07 09:42:58;;;;;;;;;;;10.80;99.90;;;;;;5042575;28;1516;-91
2023/01/07 09:45:29;;;;;;;;;;;10.80;99.90;;;;;;5037136;28;1635;-92
2023/01/07 09:48:00;;;;;;;;;;;10.90;99.90;;;;;;5041858;28;1993;-89
2023/01/07 09:50:39;;;;;;;;;;;10.90;99.90;;;;;;5041639;28;1576;-88
2023/01/07 09:53:08;;;;;;;;;;;10.90;99.90;;;;;;5039781;28;1075;-89
2023/01/07 09:55:37;;;;;;;;;;;11.00;99.90;;;;;;5023129;28;1654;-88
2023/01/07 09:58:24;;;;;;;;;;;11.00;99.90;;;;;;5023468;28;1585;-90
2023/01/07 10:00:57;;;;;;;;;;;11.10;99.90;;;;;;5030071;28;1085;-90
2023/01/07 10:03:32;;;;;;;;;;;11.10;99.90;;;;;;5037099;28;1549;-90
2023/01/07 10:06:04;;;;;;;;;;;11.10;99.90;;;;;;5032510;28;1703;-90
2023/01/07 10:08:36;;;;;;;;;;;11.10;99.90;;;;;;5029549;28;1995;-88
2023/01/07 10:17:29;;;;;;;;;;;10.90;99.90;;;;;;5010170;23;1895;-76
2023/01/07 10:20:01;;;;;;;;;;;11.20;99.90;;;;;;5043184;28;1277;-77
2023/01/07 10:22:31;;;;;;;;;;;11.30;99.90;;;;;;5039620;28;1072;-75
2023/01/07 10:25:00;;;;;;;;;;;11.30;99.90;;;;;;5041602;28;1300;-75
2023/01/07 10:27:29;;;;;;;;;;;11.40;99.90;;;;;;5042003;28;1937;-70
2023/01/07 10:30:00;;;;;;;;;;;11.30;99.90;;;;;;5043274;28;1997;-73
2023/01/07 10:32:30;;;;;;;;;;;11.30;99.90;;;;;;5043192;28;2094;-74
2023/01/07 10:35:00;;;;;;;;;;;11.40;99.90;;;;;;5042328;28;1806;-74
2023/01/07 10:37:29;;;;;;;;;;;11.50;99.90;;;;;;5041980;28;1271;-73
2023/01/07 10:40:06;;;;;;;;;;;11.50;99.90;;;;;;5045927;28;1040;-75
2023/01/07 10:42:37;;;;;;;;;;;11.60;99.90;;;;;;5048243;28;1103;-74
2023/01/07 10:45:26;;;;;;;;;;;11.50;99.90;;;;;;5042608;28;1581;-74
2023/01/07 10:48:03;;;;;;;;;;;11.60;99.90;;;;;;5038725;28;1987;-75
2023/01/07 10:50:41;;;;;;;;;;;11.50;99.90;;;;;;5042813;28;1084;-75
2023/01/07 10:53:13;;;;;;;;;;;11.40;99.90;;;;;;5047894;28;1108;-74
2023/01/07 10:55:47;;;;;;;;;;;11.50;99.90;;;;;;5045281;28;1365;-74
2023/01/07 10:58:14;;;;;;;;;;;11.50;99.90;;;;;;5043354;28;1036;-74
2023/01/07 11:00:45;;;;;;;;;;;11.50;99.90;;;;;;5048207;28;1055;-74
2023/01/07 11:03:16;;;;;;;;;;;11.50;99.90;;;;;;5043898;28;1782;-74
2023/01/07 11:05:45;;;;;;;;;;;11.30;99.90;;;;;;5038011;28;1358;-74
2023/01/07 11:08:15;;;;;;;;;;;11.20;99.90;;;;;;5043351;28;1906;-73
2023/01/07 11:10:43;;;;;;;;;;;11.20;99.90;;;;;;5042725;28;1092;-75
2023/01/07 11:13:14;;;;;;;;;;;11.30;99.90;;;;;;5045541;28;1532;-74
2023/01/07 11:15:44;;;;;;;;;;;11.20;99.90;;;;;;5042276;28;1556;-74
2023/01/07 11:18:16;;;;;;;;;;;11.30;99.90;;;;;;5042182;28;1158;-74
2023/01/07 11:20:46;;;;;;;;;;;11.30;99.90;;;;;;5045284;28;1064;-74
2023/01/07 11:23:18;;;;;;;;;;;11.40;99.90;;;;;;5044668;28;1044;-74
2023/01/07 11:25:46;;;;;;;;;;;11.40;99.90;;;;;;5038803;28;1324;-74
2023/01/07 11:28:17;;;;;;;;;;;11.50;99.90;;;;;;5042129;28;1989;-74
2023/01/07 11:30:46;;;;;;;;;;;11.60;99.90;;;;;;5045028;28;1135;-74
2023/01/07 11:33:19;;;;;;;;;;;11.70;99.90;;;;;;5040452;28;1567;-74
2023/01/07 11:35:52;;;;;;;;;;;11.80;99.90;;;;;;5044199;28;1477;-75
2023/01/07 11:38:26;;;;;;;;;;;11.80;99.90;;;;;;5045825;28;1071;-75
2023/01/07 11:40:55;;;;;;;;;;;11.60;99.90;;;;;;5037318;28;2018;-77
2023/01/07 11:43:25;;;;;;;;;;;11.70;99.90;;;;;;5040028;28;2470;-76
2023/01/07 11:45:54;;;;;;;;;;;11.70;99.90;;;;;;5044439;28;1300;-76
2023/01/07 11:48:48;;;;;;;;;;;11.80;99.90;;;;;;5043247;28;1906;-76
2023/01/07 11:51:18;;;;;;;;;;;11.80;99.90;;;;;;5041893;28;1952;-75
2023/01/07 11:53:46;;;;;;;;;;;11.70;99.90;;;;;;5044396;28;1353;-76
2023/01/07 11:56:25;;;;;;;;;;;11.80;99.90;;;;;;5042516;28;1039;-76
2023/01/07 11:59:08;;;;;;;;;;;11.90;99.90;;;;;;5043898;28;1050;-74
2023/01/07 12:01:41;;;;;;;;;;;11.80;99.90;;;;;;5042283;28;1489;-74
2023/01/07 12:04:13;;;;;;;;;;;11.90;99.90;;;;;;5059807;28;1288;-79
2023/01/07 12:06:44;;;;;;;;;;;11.90;99.90;;;;;;5058054;28;1811;-79
2023/01/07 12:09:23;;;;;;;;;;;11.80;99.90;;;;;;5053581;28;1887;-80
2023/01/07 12:11:53;;;;;;;;;;;11.80;99.90;;;;;;5054677;28;1699;-78
2023/01/07 12:14:24;;;;;;;;;;;11.80;99.90;;;;;;5048828;28;1370;-78
2023/01/07 12:16:53;;;;;;;;;;;11.90;99.90;;;;;;5046984;28;1390;-82
2023/01/07 12:19:30;;;;;;;;;;;11.90;99.90;;;;;;5045912;28;1687;-83
2023/01/07 12:22:11;;;;;;;;;;;11.90;99.90;;;;;;5049295;28;1671;-80
2023/01/07 12:24:58;;;;;;;;;;;12.10;99.90;;;;;;5054193;28;1650;-84
2023/01/07 12:27:30;;;;;;;;;;;12.00;99.90;;;;;;5041466;28;1654;-78
2023/01/07 12:30:07;;;;;;;;;;;12.10;99.90;;;;;;5039251;28;1914;-80
2023/01/07 12:32:41;;;;;;;;;;;12.10;99.90;;;;;;5042996;28;1761;-77
2023/01/07 12:35:12;;;;;;;;;;;12.10;99.90;;;;;;5039298;28;1893;-78
2023/01/07 12:37:45;;;;;;;;;;;12.00;99.90;;;;;;5042393;28;1687;-78
2023/01/07 12:40:27;;;;;;;;;;;12.10;99.90;;;;;;5039145;28;1659;-79
2023/01/07 12:42:57;;;;;;;;;;;12.10;99.90;;;;;;5042058;28;1223;-79
2023/01/07 12:45:27;;;;;;;;;;;12.10;99.90;;;;;;5044131;28;1415;-78
2023/01/07 12:48:00;;;;;;;;;;;12.20;99.90;;;;;;5059230;28;1112;-79
2023/01/07 12:50:29;;;;;;;;;;;12.20;99.90;;;;;;5065325;28;1970;-78
2023/01/07 12:53:03;;;;;;;;;;;12.00;99.90;;;;;;5058962;28;1620;-78
2023/01/07 12:55:32;;;;;;;;;;;11.90;99.90;;;;;;5047778;28;1682;-77
2023/01/07 12:58:04;;;;;;;;;;;11.90;99.90;;;;;;5053476;28;1013;-76
2023/01/07 13:00:33;;;;;;;;;;;11.80;99.90;;;;;;5050688;28;1676;-78
2023/01/07 13:03:09;;;;;;;;;;;11.80;99.90;;;;;;5057097;28;1181;-75
2023/01/07 13:05:38;;;;;;;;;;;11.70;99.90;;;;;;5064649;28;1747;-84
2023/01/07 13:08:11;;;;;;;;;;;11.70;99.90;;;;;;5066401;28;1681;-84
2023/01/07 13:10:41;;;;;;;;;;;11.80;99.90;;;;;;5065244;28;1962;-77
2023/01/07 13:13:12;;;;;;;;;;;11.80;99.90;;;;;;5048711;28;1861;-78
2023/01/07 13:15:41;;;;;;;;;;;11.70;99.90;;;;;;5053516;28;1603;-75
2023/01/07 13:18:13;;;;;;;;;;;11.60;99.90;;;;;;5049155;28;1642;-78
2023/01/07 13:20:52;;;;;;;;;;;11.70;99.90;;;;;;5053469;28;1433;-78
2023/01/07 13:23:24;;;;;;;;;;;11.60;99.90;;;;;;5047045;28;1108;-77
2023/01/07 13:25:59;;;;;;;;;;;11.50;99.90;;;;;;5052172;28;1314;-79
2023/01/07 13:28:34;;;;;;;;;;;11.50;99.90;;;;;;5055727;28;1084;-79
2023/01/07 13:36:34;;;;;;;;;;;11.30;99.90;;;;;;5019895;28;1679;-78
2023/01/07 13:39:16;;;;;;;;;;;11.30;99.90;;;;;;5023451;28;1031;-79
2023/01/07 13:41:49;;;;;;;;;;;11.40;99.90;;;;;;5023645;28;1738;-81
2023/01/07 13:44:26;;;;;;;;;;;11.40;99.90;;;;;;5024883;28;1459;-78
2023/01/07 13:46:54;;;;;;;;;;;11.50;99.90;;;;;;5020375;28;1683;-77
2023/01/07 13:49:24;;;;;;;;;;;11.50;99.90;;;;;;5023757;28;1996;-78
2023/01/07 13:51:52;;;;;;;;;;;11.50;99.90;;;;;;5026495;28;1719;-78
2023/01/07 13:54:44;;;;;;;;;;;11.50;99.90;;;;;;5027457;28;1671;-76
2023/01/07 13:57:40;;;;;;;;;;;11.40;99.90;;;;;;5009706;28;1699;-78
2023/01/07 14:00:27;;;;;;;;;;;11.40;99.90;;;;;;5028048;28;1822;-79
2023/01/07 14:02:55;;;;;;;;;;;11.30;99.90;;;;;;5026875;28;1342;-79
2023/01/07 14:05:24;;;;;;;;;;;11.30;99.90;;;;;;5034443;28;1396;-80
2023/01/07 14:07:54;;;;;;;;;;;11.30;99.90;;;;;;5033716;28;1647;-79
2023/01/07 14:10:25;;;;;;;;;;;11.20;99.90;;;;;;5033385;28;1887;-78
2023/01/07 14:13:03;;;;;;;;;;;11.30;99.90;;;;;;5032243;28;1171;-79
2023/01/07 14:15:39;;;;;;;;;;;11.20;99.90;;;;;;5035338;28;1543;-79
2023/01/07 14:18:24;;;;;;;;;;;11.20;99.90;;;;;;5032402;28;1006;-78
2023/01/07 14:20:55;;;;;;;;;;;11.10;99.90;;;;;;5027760;28;1360;-77
2023/01/07 14:23:28;;;;;;;;;;;11.10;99.90;;;;;;5038467;28;1639;-78
2023/01/07 14:26:05;;;;;;;;;;;11.10;99.90;;;;;;5029668;28;1155;-77
2023/01/07 14:28:51;;;;;;;;;;;11.10;99.90;;;;;;5031145;28;1691;-79
2023/01/07 14:31:22;;;;;;;;;;;11.00;99.90;;;;;;5034676;28;1882;-78
2023/01/07 14:33:51;;;;;;;;;;;11.00;99.90;;;;;;5032403;28;1260;-78
2023/01/07 14:36:20;;;;;;;;;;;11.00;99.90;;;;;;5027120;28;1726;-78
2023/01/07 14:39:05;;;;;;;;;;;11.00;99.90;;;;;;5027420;28;1825;-77
2023/01/07 14:41:33;;;;;;;;;;;10.90;99.90;;;;;;5031309;28;1105;-77
2023/01/07 14:44:15;;;;;;;;;;;10.90;99.90;;;;;;5019103;28;1322;-77
2023/01/07 14:46:54;;;;;;;;;;;10.90;99.90;;;;;;5017460;28;1161;-78
2023/01/07 14:49:46;;;;;;;;;;;10.90;99.90;;;;;;5033805;28;1424;-80
2023/01/07 14:52:31;;;;;;;;;;;10.90;99.90;;;;;;5032821;28;1993;-77
2023/01/07 14:55:19;;;;;;;;;;;10.90;99.90;;;;;;5030142;28;1350;-79
2023/01/07 14:57:53;;;;;;;;;;;10.90;99.90;;;;;;5033913;28;1679;-77
2023/01/07 15:00:36;;;;;;;;;;;10.90;99.90;;;;;;5033736;28;1052;-77
2023/01/07 15:03:23;;;;;;;;;;;10.80;99.90;;;;;;5028264;28;1738;-79
2023/01/07 15:05:58;;;;;;;;;;;10.80;99.90;;;;;;5033042;28;1052;-79
2023/01/07 15:16:49;;;;;;;;;;;10.60;99.90;;;;;;5024235;28;1520;-79
2023/01/07 15:19:18;;;;;;;;;;;10.60;99.90;;;;;;5028063;28;1735;-78
2023/01/07 15:21:52;;;;;;;;;;;10.60;99.90;;;;;;5024223;28;1113;-78
2023/01/07 15:24:23;;;;;;;;;;;10.60;99.90;;;;;;5016618;28;1352;-77